Time;durP1;ratioP1;P1;durP2;ratioP2;P2;SDS_P1;SDS_P2;PMS_P1;PMS_P2;Temp;Humidity;BMP_temperature;BMP_pressure;BME280_temperature;BME280_humidity;BME280_pressure;Samples;Min_cycle;Max_cycle;Signal;HPM_P1;HPM_P2
2022/03/25 00:02:50;;;;;;;4.18;1.25;;;11.20;81.80;;;;;;20678459;28;20046;-59
2022/03/25 00:12:52;;;;;;;2.97;1.10;;;11.20;81.80;;;;;;20678979;28;20046;-60
2022/03/25 00:22:54;;;;;;;2.75;1.00;;;11.20;81.70;;;;;;20678110;28;20406;-58
2022/03/25 00:32:56;;;;;;;1.20;0.80;;;11.10;81.60;;;;;;20678140;28;20478;-59
2022/03/25 00:42:58;;;;;;;1.88;0.90;;;11.20;81.40;;;;;;20676833;28;20481;-61
2022/03/25 00:53:00;;;;;;;4.72;1.10;;;11.10;81.30;;;;;;20675794;28;20050;-60
2022/03/25 01:03:01;;;;;;;2.30;0.70;;;11.10;81.40;;;;;;20674581;28;20124;-59
2022/03/25 01:13:04;;;;;;;4.18;0.82;;;11.10;81.30;;;;;;20674681;28;20080;-61
2022/03/25 01:23:07;;;;;;;3.88;0.73;;;11.10;81.00;;;;;;20673438;28;20494;-61
2022/03/25 01:33:13;;;;;;;4.78;0.80;;;11.00;81.00;;;;;;20673492;28;20498;-60
2022/03/25 01:43:14;;;;;;;3.67;0.85;;;11.00;80.90;;;;;;20669913;28;20057;-58
2022/03/25 01:53:23;;;;;;;2.28;0.60;;;11.00;80.90;;;;;;20671140;28;20046;-61
2022/03/25 02:03:24;;;;;;;3.28;0.68;;;11.10;80.80;;;;;;20670969;28;20054;-61
2022/03/25 02:13:25;;;;;;;3.50;0.73;;;11.00;80.60;;;;;;20670037;28;20081;-62
2022/03/25 02:23:27;;;;;;;3.67;0.50;;;10.90;80.50;;;;;;20669472;28;20058;-57
2022/03/25 02:33:28;;;;;;;2.92;0.65;;;10.90;80.40;;;;;;20670614;28;20104;-60
2022/03/25 02:43:30;;;;;;;4.90;0.73;;;10.80;80.40;;;;;;20667869;28;20050;-57
2022/03/25 02:53:32;;;;;;;2.53;0.80;;;10.80;80.40;;;;;;20665826;28;20055;-58
2022/03/25 03:03:36;;;;;;;3.17;0.68;;;10.70;80.30;;;;;;20666482;28;20054;-59
2022/03/25 03:13:41;;;;;;;3.45;0.47;;;10.80;80.10;;;;;;20667664;28;20504;-59
2022/03/25 03:23:45;;;;;;;7.78;0.95;;;10.80;79.90;;;;;;20667377;28;20046;-61
2022/03/25 03:33:47;;;;;;;4.47;0.65;;;10.80;79.90;;;;;;20667362;28;20046;-58
2022/03/25 03:43:50;;;;;;;3.03;0.80;;;10.80;79.80;;;;;;20664102;28;20061;-59
2022/03/25 03:53:52;;;;;;;3.83;0.60;;;10.70;80.40;;;;;;20665629;28;20521;-59
2022/03/25 04:03:54;;;;;;;6.03;1.00;;;10.60;80.60;;;;;;20671590;28;20509;-58
2022/03/25 04:13:56;;;;;;;5.55;0.77;;;10.50;81.00;;;;;;20679132;28;20061;-58
2022/03/25 04:23:58;;;;;;;5.72;1.35;;;10.40;81.40;;;;;;20678713;28;20054;-59
2022/03/25 04:34:00;;;;;;;3.88;0.90;;;10.40;81.40;;;;;;20678291;28;20065;-60
2022/03/25 04:44:02;;;;;;;3.80;1.15;;;10.30;81.40;;;;;;20676419;28;20047;-58
2022/03/25 04:54:05;;;;;;;3.65;0.70;;;10.30;81.30;;;;;;20675902;28;20054;-59
2022/03/25 05:04:07;;;;;;;6.88;0.88;;;10.30;81.50;;;;;;20674903;28;20054;-58
2022/03/25 05:14:10;;;;;;;4.10;0.95;;;10.40;81.50;;;;;;20673839;28;20078;-63
2022/03/25 05:24:12;;;;;;;3.78;0.90;;;10.30;81.30;;;;;;20673655;28;20109;-59
2022/03/25 05:34:17;;;;;;;4.85;0.82;;;10.30;81.20;;;;;;20672618;28;20050;-59
2022/03/25 05:44:19;;;;;;;5.35;1.10;;;10.30;81.20;;;;;;20672176;28;20050;-58
2022/03/25 05:54:21;;;;;;;10.90;2.10;;;10.40;80.90;;;;;;20670702;28;20042;-62
2022/03/25 06:04:23;;;;;;;9.40;1.65;;;10.30;80.80;;;;;;20669724;28;20054;-60
2022/03/25 06:14:26;;;;;;;10.18;1.42;;;10.30;80.50;;;;;;20670000;28;20050;-61
2022/03/25 06:24:28;;;;;;;8.77;1.35;;;10.20;80.40;;;;;;20669000;28;20459;-62
2022/03/25 06:34:29;;;;;;;6.88;1.30;;;10.30;80.20;;;;;;20667575;28;20057;-63
2022/03/25 06:44:31;;;;;;;8.27;1.60;;;10.30;79.90;;;;;;20665946;28;20046;-59
2022/03/25 06:54:32;;;;;;;11.05;1.73;;;10.40;79.80;;;;;;20666968;28;20133;-60
2022/03/25 07:04:34;;;;;;;7.15;1.52;;;10.50;79.40;;;;;;20666535;28;20550;-61
2022/03/25 07:14:36;;;;;;;10.70;1.90;;;10.50;79.20;;;;;;20666366;28;20050;-61
2022/03/25 07:24:38;;;;;;;6.47;2.17;;;10.60;78.90;;;;;;20664933;28;20050;-59
2022/03/25 07:34:39;;;;;;;7.63;1.95;;;10.70;78.80;;;;;;20666223;28;20050;-60
2022/03/25 07:44:41;;;;;;;8.18;2.10;;;10.80;78.60;;;;;;20681259;28;20050;-59
2022/03/25 07:54:44;;;;;;;7.97;1.75;;;10.90;78.10;;;;;;20679441;28;20042;-61
2022/03/25 08:04:46;;;;;;;8.85;2.35;;;11.10;77.90;;;;;;20679674;28;20468;-59
2022/03/25 08:14:49;;;;;;;10.50;1.88;;;11.20;77.40;;;;;;20678076;28;20050;-57
2022/03/25 08:35:10;;;;;;;5.85;1.88;;;11.30;76.90;;;;;;20676382;28;20054;-57
2022/03/25 08:45:15;;;;;;;8.30;2.03;;;11.40;76.70;;;;;;20675050;28;20054;-57
2022/03/25 08:55:18;;;;;;;12.32;2.10;;;11.50;76.40;;;;;;20674057;28;20051;-57
2022/03/25 09:05:20;;;;;;;6.68;1.88;;;11.50;76.00;;;;;;20674205;28;20050;-59
2022/03/25 09:15:22;;;;;;;40.78;18.27;;;11.70;75.60;;;;;;20674469;28;20133;-57
2022/03/25 09:25:24;;;;;;;6.45;2.25;;;12.10;74.80;;;;;;20677448;28;20046;-58
2022/03/25 09:35:26;;;;;;;10.23;2.53;;;12.40;74.10;;;;;;20673329;28;20042;-60
2022/03/25 09:45:30;;;;;;;11.70;2.10;;;12.70;73.20;;;;;;20671796;28;20525;-59
2022/03/25 09:55:40;;;;;;;9.18;1.52;;;12.50;73.00;;;;;;20671195;28;20050;-56
2022/03/25 10:05:53;;;;;;;5.80;1.80;;;12.80;72.40;;;;;;20668908;28;20078;-60
2022/03/25 10:15:55;;;;;;;10.30;2.10;;;13.20;71.60;;;;;;20668392;28;20088;-58
2022/03/25 10:25:59;;;;;;;9.68;2.25;;;13.20;71.20;;;;;;20681080;28;20160;-59
2022/03/25 10:36:08;;;;;;;11.85;2.58;;;13.20;71.40;;;;;;20658437;28;20046;-62
2022/03/25 10:46:35;;;;;;;8.63;2.03;;;13.70;69.90;;;;;;20663424;28;20137;-59
2022/03/25 10:56:51;;;;;;;14.50;2.17;;;13.30;70.60;;;;;;20658993;28;20133;-60
2022/03/25 11:06:53;;;;;;;14.38;2.53;;;13.40;70.40;;;;;;20662879;28;20418;-60
2022/03/25 11:16:59;;;;;;;16.05;3.47;;;13.30;70.30;;;;;;20675321;28;20051;-59
2022/03/25 11:27:08;;;;;;;12.77;2.63;;;13.40;70.10;;;;;;20680467;28;20054;-62
2022/03/25 11:37:21;;;;;;;13.45;2.38;;;13.70;69.40;;;;;;20677324;28;20104;-60
2022/03/25 11:47:22;;;;;;;11.90;3.03;;;14.40;67.70;;;;;;20677522;28;20082;-62
2022/03/25 11:57:26;;;;;;;11.70;2.90;;;14.30;68.20;;;;;;20656450;28;20061;-66
2022/03/25 12:07:28;;;;;;;11.43;2.33;;;14.30;68.00;;;;;;20656605;28;20088;-62
2022/03/25 12:17:30;;;;;;;12.60;3.13;;;14.00;68.50;;;;;;20655966;28;20047;-70
2022/03/25 12:27:32;;;;;;;18.05;2.75;;;14.00;68.80;;;;;;20673900;28;20056;-62
2022/03/25 12:38:11;;;;;;;13.15;2.80;;;13.90;69.10;;;;;;20713596;28;20135;-67
2022/03/25 12:48:23;;;;;;;11.65;2.83;;;13.80;69.30;;;;;;20621022;28;20054;-65
2022/03/25 12:58:25;;;;;;;13.35;2.67;;;13.80;69.20;;;;;;20671109;28;20065;-61
2022/03/25 13:08:26;;;;;;;16.38;3.22;;;13.90;69.00;;;;;;20674228;28;20155;-57
2022/03/25 13:18:34;;;;;;;14.45;3.25;;;14.20;68.40;;;;;;20672950;28;20050;-62
2022/03/25 13:28:38;;;;;;;11.32;2.67;;;13.80;69.80;;;;;;20672725;28;20042;-60
2022/03/25 13:38:53;;;;;;;13.90;3.00;;;13.70;70.50;;;;;;20672024;28;20054;-59
2022/03/25 13:48:57;;;;;;;12.20;2.75;;;13.50;70.80;;;;;;20685884;28;20050;-58
2022/03/25 13:58:59;;;;;;;14.60;2.63;;;13.70;70.50;;;;;;20670779;28;20061;-56
2022/03/25 14:09:02;;;;;;;14.05;2.58;;;13.60;69.90;;;;;;20669447;28;20042;-57
2022/03/25 14:19:04;;;;;;;10.23;2.78;;;13.70;69.60;;;;;;20668992;28;20605;-55
2022/03/25 14:29:09;;;;;;;14.10;3.38;;;13.80;69.50;;;;;;20668584;28;20097;-57
2022/03/25 14:39:12;;;;;;;18.05;3.90;;;14.20;68.80;;;;;;20667339;28;20054;-57
2022/03/25 14:49:17;;;;;;;15.90;3.40;;;14.20;69.20;;;;;;20666530;28;20049;-61
2022/03/25 14:59:19;;;;;;;17.25;3.50;;;14.20;69.10;;;;;;20665969;28;20077;-62
2022/03/25 15:09:21;;;;;;;15.77;3.22;;;14.20;69.00;;;;;;20666983;28;20056;-57
2022/03/25 15:19:22;;;;;;;14.70;3.55;;;14.30;69.10;;;;;;20666736;28;20050;-61
2022/03/25 15:40:00;;;;;;;17.75;4.55;;;14.80;67.60;;;;;;20665131;28;20073;-57
2022/03/25 15:50:03;;;;;;;18.02;3.78;;;14.50;69.00;;;;;;20665815;28;20050;-62
2022/03/25 16:00:05;;;;;;;17.20;3.63;;;14.30;70.80;;;;;;20670944;28;20065;-61
2022/03/25 16:10:07;;;;;;;22.08;3.90;;;14.30;71.10;;;;;;20678595;28;20100;-58
2022/03/25 16:20:10;;;;;;;16.55;4.30;;;14.20;71.10;;;;;;20678059;28;20437;-59
2022/03/25 16:30:13;;;;;;;19.90;3.03;;;14.20;71.40;;;;;;20677848;28;20054;-62
2022/03/25 16:40:16;;;;;;;16.92;3.78;;;14.40;70.90;;;;;;20675486;28;20050;-62
2022/03/25 16:50:18;;;;;;;20.63;3.92;;;14.50;70.40;;;;;;20675081;28;20050;-68
2022/03/25 17:00:20;;;;;;;12.63;4.20;;;14.50;70.40;;;;;;20673003;28;20059;-58
2022/03/25 17:10:21;;;;;;;13.00;4.22;;;14.30;70.90;;;;;;20675163;28;20497;-66
2022/03/25 17:20:23;;;;;;;9.90;4.43;;;14.20;71.60;;;;;;20668691;28;20116;-73
2022/03/25 17:30:27;;;;;;;13.75;4.47;;;14.10;71.50;;;;;;20673913;28;20403;-61
2022/03/25 17:40:31;;;;;;;16.17;4.65;;;13.90;73.30;;;;;;20671529;28;20419;-72
2022/03/25 17:50:32;;;;;;;13.65;5.15;;;14.00;73.20;;;;;;20671310;28;20082;-73
2022/03/25 18:00:34;;;;;;;19.52;6.13;;;13.50;74.60;;;;;;20670563;28;20046;-62
2022/03/25 18:10:37;;;;;;;23.83;7.05;;;13.50;74.80;;;;;;20670777;28;20340;-69
2022/03/25 18:20:40;;;;;;;18.80;6.13;;;14.60;72.20;;;;;;20668519;28;20175;-70
2022/03/25 18:30:42;;;;;;;17.33;7.05;;;13.60;74.10;;;;;;20668612;28;20046;-62
2022/03/25 18:40:43;;;;;;;13.20;5.72;;;13.00;76.20;;;;;;20667034;28;20478;-65
2022/03/25 18:50:45;;;;;;;14.52;6.18;;;13.30;75.90;;;;;;20681887;28;20046;-60
2022/03/25 19:00:48;;;;;;;20.25;7.18;;;12.70;77.00;;;;;;20666758;28;20061;-68
2022/03/25 19:10:52;;;;;;;21.35;7.18;;;12.70;77.50;;;;;;20667726;28;20069;-74
2022/03/25 19:20:53;;;;;;;15.02;7.50;;;13.20;76.60;;;;;;20667081;28;20090;-65
2022/03/25 19:30:55;;;;;;;17.80;6.65;;;12.50;78.50;;;;;;20665463;28;20177;-71
2022/03/25 19:40:56;;;;;;;21.95;7.55;;;12.30;79.00;;;;;;20680584;28;20046;-64
2022/03/25 19:50:58;;;;;;;18.75;7.80;;;12.10;79.70;;;;;;20680438;28;20050;-60
2022/03/25 20:01:00;;;;;;;23.13;7.70;;;12.90;78.30;;;;;;20679259;28;20065;-60
2022/03/25 20:11:02;;;;;;;21.20;8.13;;;12.40;79.60;;;;;;20678586;28;20053;-60
2022/03/25 20:21:04;;;;;;;14.63;7.55;;;12.20;80.40;;;;;;20677842;28;20128;-61
2022/03/25 20:31:06;;;;;;;20.10;7.85;;;12.20;80.40;;;;;;20677109;28;20058;-60
2022/03/25 20:41:08;;;;;;;17.60;6.82;;;12.20;80.50;;;;;;20675675;28;20050;-60
2022/03/25 20:51:10;;;;;;;23.45;7.93;;;12.20;80.30;;;;;;20690590;28;20054;-59
2022/03/25 21:01:12;;;;;;;15.45;6.57;;;12.00;80.50;;;;;;20675011;28;20410;-61
2022/03/25 21:11:14;;;;;;;22.95;7.75;;;11.90;80.80;;;;;;20673967;28;20082;-59
2022/03/25 21:21:16;;;;;;;18.15;7.07;;;11.70;81.20;;;;;;20672924;28;20046;-59
2022/03/25 21:31:18;;;;;;;14.68;6.22;;;11.60;81.30;;;;;;20672488;28;20046;-61
2022/03/25 21:41:20;;;;;;;15.90;6.80;;;11.50;81.20;;;;;;20671884;28;20061;-60
2022/03/25 21:51:22;;;;;;;18.40;7.03;;;11.40;81.30;;;;;;20670871;28;20046;-60
2022/03/25 22:01:24;;;;;;;14.30;6.75;;;11.30;81.20;;;;;;20670323;28;20129;-61
2022/03/25 22:11:28;;;;;;;25.00;11.55;;;11.20;81.20;;;;;;20669912;28;20141;-59
2022/03/25 22:21:30;;;;;;;17.27;7.10;;;11.20;81.00;;;;;;20669373;28;20050;-61
2022/03/25 22:31:33;;;;;;;12.65;6.47;;;11.10;80.80;;;;;;20665735;28;20557;-60
2022/03/25 22:41:35;;;;;;;14.85;8.00;;;11.10;80.60;;;;;;20664641;28;20058;-61
2022/03/25 22:51:40;;;;;;;16.33;7.22;;;11.00;80.20;;;;;;20663422;28;20565;-60
2022/03/25 23:01:46;;;;;;;13.13;6.45;;;11.00;80.10;;;;;;20663009;28;20458;-59
2022/03/25 23:11:48;;;;;;;14.27;7.00;;;11.00;79.90;;;;;;20661433;28;20121;-60
2022/03/25 23:21:49;;;;;;;11.90;6.10;;;10.90;79.80;;;;;;20621047;28;1179424;-60
2022/03/25 23:31:51;;;;;;;11.80;6.38;;;10.80;79.50;;;;;;20679765;28;20042;-59
2022/03/25 23:41:53;;;;;;;12.80;5.65;;;10.70;78.90;;;;;;20663983;28;20066;-60
2022/03/25 23:51:54;;;;;;;10.07;5.55;;;10.60;78.60;;;;;;20664395;28;20047;-60
